createdAt,value
2022-10-11T00:02:31.757Z,1.52
2022-10-11T00:06:33.721Z,1.33
2022-10-11T00:10:35.406Z,1.80
2022-10-11T00:14:37.655Z,1.38
2022-10-11T00:18:40.201Z,1.83
2022-10-11T00:22:42.620Z,1.55
2022-10-11T00:26:46.983Z,1.65
2022-10-11T00:30:49.027Z,1.50
2022-10-11T00:34:50.763Z,1.73
2022-10-11T00:38:52.936Z,1.95
2022-10-11T00:42:54.601Z,1.48
2022-10-11T00:47:08.016Z,1.60
2022-10-11T00:51:19.614Z,1.60
2022-10-11T00:55:23.101Z,1.65
2022-10-11T00:59:28.773Z,1.52
2022-10-11T01:03:31.682Z,1.80
2022-10-11T01:07:34.407Z,1.48
2022-10-11T01:11:39.458Z,1.25
2022-10-11T01:15:49.214Z,1.50
2022-10-11T01:20:09.389Z,1.40
2022-10-11T01:24:49.121Z,1.58
2022-10-11T01:29:05.901Z,1.88
2022-10-11T01:33:16.761Z,1.80
2022-10-11T01:37:32.913Z,1.63
2022-10-11T01:41:39.140Z,1.75
2022-10-11T01:45:42.591Z,1.52
2022-10-11T01:49:44.416Z,2.75
2022-10-11T01:53:55.150Z,2.22
2022-10-11T01:58:05.737Z,1.95
2022-10-11T02:02:28.694Z,1.42
2022-10-11T02:06:47.179Z,1.80
2022-10-11T02:11:04.379Z,1.35
2022-10-11T02:15:09.417Z,1.40
2022-10-11T02:19:15.211Z,1.83
2022-10-11T02:23:29.894Z,1.40
2022-10-11T02:27:34.127Z,1.67
2022-10-11T02:31:37.255Z,1.55
2022-10-11T02:35:44.431Z,1.08
2022-10-11T02:39:52.406Z,2.45
2022-10-11T02:44:03.448Z,1.58
2022-10-11T02:48:07.249Z,1.67
2022-10-11T02:52:09.072Z,1.60
2022-10-11T02:56:10.809Z,1.50
2022-10-11T03:00:13.484Z,1.60
2022-10-11T03:04:15.197Z,1.50
2022-10-11T03:08:17.581Z,1.52
2022-10-11T03:12:19.291Z,1.52
2022-10-11T03:16:21.189Z,1.27
2022-10-11T03:20:23.658Z,1.23
2022-10-11T03:24:25.504Z,1.85
2022-10-11T03:28:27.437Z,1.73
2022-10-11T03:32:29.303Z,1.60
2022-10-11T03:36:31.085Z,1.30
2022-10-11T03:40:32.829Z,1.45
2022-10-11T03:44:34.535Z,1.70
2022-10-11T03:48:36.449Z,1.50
2022-10-11T03:52:38.105Z,2.10
2022-10-11T03:56:40.005Z,1.20
2022-10-11T04:00:41.709Z,1.33
2022-10-11T04:04:43.585Z,1.35
2022-10-11T04:08:45.254Z,1.55
2022-10-11T04:12:46.913Z,1.17
2022-10-11T04:16:48.554Z,1.80
2022-10-11T04:20:50.298Z,1.80
2022-10-11T04:24:52.250Z,1.73
2022-10-11T04:28:54.230Z,1.83
2022-10-11T04:32:56.033Z,2.35
2022-10-11T04:36:57.728Z,1.92
2022-10-11T04:41:10.087Z,2.17
2022-10-11T04:45:11.825Z,2.15
2022-10-11T04:49:13.585Z,1.85
2022-10-11T04:53:15.266Z,2.35
2022-10-11T04:57:16.937Z,1.60
2022-10-11T05:01:18.578Z,2.08
2022-10-11T05:05:20.213Z,2.20
2022-10-11T05:09:21.981Z,2.33
2022-10-11T05:13:24.591Z,2.22
2022-10-11T05:17:26.270Z,2.25
2022-10-11T05:21:29.069Z,2.17
2022-10-11T05:25:30.735Z,1.98
2022-10-11T05:29:32.494Z,1.60
2022-10-11T05:33:34.557Z,3.05
2022-10-11T05:37:36.275Z,2.13
2022-10-11T05:41:38.095Z,2.05
2022-10-11T05:45:41.684Z,1.63
2022-10-11T05:49:43.406Z,2.05
2022-10-11T05:53:45.049Z,1.30
2022-10-11T05:57:46.782Z,2.28
2022-10-11T06:01:49.214Z,2.05
2022-10-11T06:05:55.789Z,2.10
2022-10-11T06:09:58.578Z,1.90
2022-10-11T06:14:00.336Z,1.98
2022-10-11T06:18:02.023Z,1.73
2022-10-11T06:22:03.794Z,1.55
2022-10-11T06:26:09.061Z,2.42
2022-10-11T06:30:11.600Z,1.88
2022-10-11T06:34:13.275Z,1.55
2022-10-11T06:38:15.249Z,2.30
2022-10-11T06:42:17.497Z,2.40
2022-10-11T06:46:20.754Z,2.08
2022-10-11T06:50:40.793Z,1.90
2022-10-11T06:54:45.146Z,2.30
2022-10-11T06:58:47.415Z,2.17
2022-10-11T07:02:49.929Z,1.80
2022-10-11T07:06:51.757Z,2.90
2022-10-11T07:10:53.451Z,1.90
2022-10-11T07:14:55.113Z,1.80
2022-10-11T07:19:00.687Z,2.78
2022-10-11T07:23:02.717Z,2.33
2022-10-11T07:27:04.422Z,2.95
2022-10-11T07:31:18.296Z,2.65
2022-10-11T07:35:19.974Z,2.15
2022-10-11T07:39:22.069Z,2.58
2022-10-11T07:43:24.270Z,2.42
2022-10-11T07:47:25.998Z,3.25
2022-10-11T07:51:27.664Z,2.42
2022-10-11T07:55:31.219Z,2.25
2022-10-11T07:59:33.387Z,2.28
2022-10-11T08:03:35.326Z,2.67
2022-10-11T08:07:37.496Z,2.65
2022-10-11T08:11:39.940Z,2.78
2022-10-11T08:15:41.761Z,2.63
2022-10-11T08:19:43.432Z,2.78
2022-10-11T08:23:45.491Z,2.67
2022-10-11T08:27:47.193Z,2.90
2022-10-11T08:31:48.905Z,2.45
2022-10-11T08:35:51.477Z,2.97
2022-10-11T08:39:53.122Z,3.30
2022-10-11T08:44:14.484Z,2.63
2022-10-11T08:48:30.860Z,2.75
2022-10-11T08:52:46.889Z,2.83
2022-10-11T08:56:49.496Z,2.67
2022-10-11T09:00:54.354Z,3.15
2022-10-11T09:04:56.470Z,3.00
2022-10-11T09:09:19.611Z,2.80
2022-10-11T09:13:31.616Z,2.38
2022-10-11T09:17:44.957Z,2.88
2022-10-11T09:21:56.614Z,2.50
2022-10-11T09:26:17.350Z,2.70
2022-10-11T09:30:20.183Z,2.90
2022-10-11T09:34:25.669Z,2.95
2022-10-11T09:38:36.779Z,2.17
2022-10-11T09:42:38.667Z,2.40
2022-10-11T09:46:42.345Z,1.95
2022-10-11T09:50:44.751Z,2.47
2022-10-11T09:54:50.105Z,2.10
2022-10-11T09:59:06.907Z,2.83
2022-10-11T10:03:28.616Z,1.67
2022-10-11T10:07:32.028Z,1.80
2022-10-11T10:11:37.017Z,2.30
2022-10-11T10:15:49.110Z,2.17
2022-10-11T10:19:55.525Z,1.95
2022-10-11T10:24:03.159Z,1.77
2022-10-11T10:28:19.656Z,2.30
2022-10-11T10:32:26.290Z,2.10
2022-10-11T10:36:39.826Z,1.27
2022-10-11T10:40:43.482Z,1.83
2022-10-11T10:44:51.580Z,1.15
2022-10-11T10:49:48.850Z,2.05
2022-10-11T10:54:21.377Z,2.03
2022-10-11T10:58:47.700Z,1.95
2022-10-11T11:03:01.258Z,1.55
2022-10-11T11:07:17.083Z,3.10
2022-10-11T11:11:36.031Z,1.80
2022-10-11T11:16:03.464Z,1.83
2022-10-11T11:20:24.927Z,1.67
2022-10-11T11:24:32.350Z,1.88
2022-10-11T11:29:04.190Z,1.53
2022-10-11T11:33:27.401Z,1.98
2022-10-11T11:37:34.392Z,2.00
2022-10-11T11:41:40.966Z,1.85
2022-10-11T11:45:51.325Z,2.40
2022-10-11T11:50:23.005Z,2.10
2022-10-11T11:54:54.424Z,1.80
2022-10-11T11:59:12.982Z,1.42
2022-10-11T12:07:25.014Z,1.70
2022-10-11T12:11:35.362Z,1.50
2022-10-11T12:15:37.828Z,1.75
2022-10-11T12:19:41.923Z,1.40
2022-10-11T12:23:46.462Z,1.17
2022-10-11T12:27:54.300Z,2.13
2022-10-11T12:31:59.029Z,1.63
2022-10-11T12:36:29.682Z,1.77
2022-10-11T12:40:43.693Z,1.77
2022-10-11T12:45:11.146Z,1.88
2022-10-11T12:49:13.187Z,1.58
2022-10-11T12:53:39.820Z,1.73
2022-10-11T12:57:59.866Z,1.63
2022-10-11T13:02:01.543Z,1.55
2022-10-11T13:06:20.294Z,1.98
2022-10-11T13:10:33.163Z,1.95
2022-10-11T13:14:58.107Z,1.88
2022-10-11T13:19:00.314Z,1.88
2022-10-11T13:23:02.376Z,1.75
2022-10-11T13:27:06.252Z,2.17
2022-10-11T13:31:09.436Z,1.58
2022-10-11T13:35:38.227Z,1.77
2022-10-11T13:39:40.212Z,1.90
2022-10-11T13:43:42.180Z,1.40
2022-10-11T13:47:44.671Z,1.30
2022-10-11T13:51:58.749Z,1.42
2022-10-11T13:56:07.549Z,1.70
2022-10-11T14:00:15.342Z,1.25
2022-10-11T14:04:17.581Z,1.25
2022-10-11T14:08:38.202Z,1.33
2022-10-11T14:12:44.436Z,1.13
2022-10-11T14:16:58.790Z,1.48
2022-10-11T14:21:37.597Z,1.17
2022-10-11T14:25:39.321Z,1.33
2022-10-11T14:29:55.595Z,1.33
2022-10-11T14:34:07.216Z,1.55
2022-10-11T14:38:11.829Z,1.58
2022-10-11T14:42:15.007Z,1.40
2022-10-11T14:46:23.699Z,1.48
2022-10-11T14:50:55.222Z,1.50
2022-10-11T14:54:56.908Z,1.25
2022-10-11T14:58:58.695Z,1.48
2022-10-11T15:03:00.313Z,1.45
2022-10-11T15:07:02.379Z,2.20
2022-10-11T15:11:04.150Z,1.92
2022-10-11T15:15:06.293Z,1.60
2022-10-11T15:19:16.913Z,1.58
2022-10-11T15:23:18.613Z,1.17
2022-10-11T15:27:20.670Z,1.45
2022-10-11T15:31:23.041Z,2.08
2022-10-11T15:35:25.789Z,0.93
2022-10-11T15:39:33.931Z,1.23
2022-10-11T15:47:37.309Z,1.95
2022-10-11T15:51:39.633Z,1.33
2022-10-11T15:55:43.848Z,2.08
2022-10-11T15:59:45.576Z,1.63
2022-10-11T16:03:49.111Z,1.63
2022-10-11T16:07:52.040Z,1.73
2022-10-11T16:11:53.702Z,1.85
2022-10-11T16:15:55.720Z,2.38
2022-10-11T16:19:57.695Z,1.83
2022-10-11T16:23:59.508Z,1.88
2022-10-11T16:28:02.552Z,1.92
2022-10-11T16:32:04.414Z,1.90
2022-10-11T16:36:26.659Z,1.83
2022-10-11T16:40:29.947Z,1.90
2022-10-11T16:44:32.825Z,2.13
2022-10-11T16:48:34.486Z,1.80
2022-10-11T16:52:36.230Z,2.22
2022-10-11T16:56:40.067Z,1.75
2022-10-11T17:00:42.697Z,2.20
2022-10-11T17:04:45.393Z,1.77
2022-10-11T17:08:47.111Z,1.92
2022-10-11T17:12:50.259Z,1.73
2022-10-11T17:16:52.119Z,1.80
2022-10-11T17:21:01.834Z,1.73
2022-10-11T17:25:03.773Z,1.92
2022-10-11T17:29:05.437Z,1.95
2022-10-11T17:33:07.356Z,1.70
2022-10-11T17:37:10.154Z,2.28
2022-10-11T17:41:12.265Z,1.38
2022-10-11T17:45:14.041Z,1.75
2022-10-11T17:49:15.978Z,2.80
2022-10-11T17:53:17.778Z,2.60
2022-10-11T17:57:19.445Z,2.10
2022-10-11T18:01:24.104Z,2.72
2022-10-11T18:05:25.879Z,2.45
2022-10-11T18:09:27.638Z,2.92
2022-10-11T18:13:29.376Z,2.53
2022-10-11T18:17:31.275Z,2.80
2022-10-11T18:21:34.616Z,3.20
2022-10-11T18:25:36.794Z,2.35
2022-10-11T18:29:38.608Z,2.92
2022-10-11T18:33:40.702Z,3.35
2022-10-11T18:37:42.447Z,4.15
2022-10-11T18:41:44.765Z,3.85
2022-10-11T18:45:46.491Z,3.50
2022-10-11T18:49:48.199Z,4.25
2022-10-11T18:53:50.534Z,3.85
2022-10-11T18:57:52.219Z,3.95
2022-10-11T19:01:53.944Z,4.28
2022-10-11T19:05:55.597Z,4.47
2022-10-11T19:09:57.249Z,5.18
2022-10-11T19:14:00.860Z,4.93
2022-10-11T19:18:02.502Z,5.15
2022-10-11T19:22:04.875Z,5.18
2022-10-11T19:26:09.247Z,5.63
2022-10-11T19:30:11.418Z,5.97
2022-10-11T19:34:13.615Z,6.20
2022-10-11T19:38:15.260Z,7.00
2022-10-11T19:42:16.943Z,6.55
2022-10-11T19:46:38.366Z,7.10
2022-10-11T19:50:42.837Z,7.10
2022-10-11T19:54:44.566Z,6.18
2022-10-11T19:58:46.270Z,8.43
2022-10-11T20:02:48.824Z,8.38
2022-10-11T20:06:50.506Z,8.98
2022-10-11T20:10:55.474Z,9.70
2022-10-11T20:14:57.203Z,11.85
2022-10-11T20:18:59.486Z,9.20
2022-10-11T20:23:01.253Z,9.32
2022-10-11T20:27:04.979Z,8.80
2022-10-11T20:31:15.666Z,7.72
2022-10-11T20:35:17.336Z,8.88
2022-10-11T20:39:19.053Z,7.20
2022-10-11T20:43:24.118Z,7.60
2022-10-11T20:47:26.001Z,6.60
2022-10-11T20:51:28.549Z,7.45
2022-10-11T20:55:30.215Z,6.20
2022-10-11T20:59:31.942Z,6.70
2022-10-11T21:03:33.605Z,6.47
2022-10-11T21:07:35.577Z,5.20
2022-10-11T21:11:37.770Z,6.10
2022-10-11T21:15:39.431Z,6.13
2022-10-11T21:19:41.204Z,6.18
2022-10-11T21:23:42.918Z,5.15
2022-10-11T21:27:44.599Z,5.35
2022-10-11T21:31:46.292Z,5.25
2022-10-11T21:35:47.971Z,5.20
2022-10-11T21:39:49.672Z,5.28
2022-10-11T21:43:51.940Z,4.10
2022-10-11T21:47:53.566Z,4.35
2022-10-11T21:51:55.344Z,4.80
2022-10-11T21:55:58.346Z,4.35
2022-10-11T22:00:00.006Z,3.35
2022-10-11T22:04:01.642Z,3.47
2022-10-11T22:08:03.420Z,3.72
2022-10-11T22:12:05.324Z,3.53
2022-10-11T22:16:09.864Z,3.47
2022-10-11T22:20:11.575Z,3.05
2022-10-11T22:24:13.479Z,3.67
2022-10-11T22:28:15.261Z,3.97
2022-10-11T22:32:16.912Z,3.50
2022-10-11T22:36:19.488Z,3.63
2022-10-11T22:40:21.189Z,3.05
2022-10-11T22:44:22.849Z,3.30
2022-10-11T22:48:24.719Z,3.08
2022-10-11T22:52:26.426Z,3.17
2022-10-11T22:56:28.158Z,3.88
2022-10-11T23:00:29.930Z,3.95
2022-10-11T23:04:31.581Z,3.25
2022-10-11T23:08:33.399Z,4.05
2022-10-11T23:12:35.121Z,2.95
2022-10-11T23:16:36.847Z,3.50
2022-10-11T23:20:39.903Z,2.70
2022-10-11T23:24:41.717Z,3.10
2022-10-11T23:28:43.861Z,2.58
2022-10-11T23:32:45.551Z,3.30
2022-10-11T23:36:47.284Z,3.58
2022-10-11T23:40:48.942Z,3.00
2022-10-11T23:44:52.059Z,2.92
2022-10-11T23:48:53.774Z,3.63
2022-10-11T23:52:57.109Z,3.28
2022-10-11T23:56:58.786Z,3.08
